sensor_id;sensor_type;location;lat;lon;timestamp;P1;durP1;ratioP1;P2;durP2;ratioP2
47760;SDS011;33524;55.434;38.520;2022-11-14T00:01:05;1.73;;;1.20;;
47760;SDS011;33524;55.434;38.520;2022-11-14T00:03:57;1.83;;;1.37;;
47760;SDS011;33524;55.434;38.520;2022-11-14T00:06:43;2.45;;;1.55;;
47760;SDS011;33524;55.434;38.520;2022-11-14T00:09:30;2.08;;;1.58;;
47760;SDS011;33524;55.434;38.520;2022-11-14T00:12:16;3.97;;;1.50;;
47760;SDS011;33524;55.434;38.520;2022-11-14T00:15:02;1.90;;;1.48;;
47760;SDS011;33524;55.434;38.520;2022-11-14T00:17:52;3.37;;;1.90;;
47760;SDS011;33524;55.434;38.520;2022-11-14T00:20:38;3.53;;;1.90;;
47760;SDS011;33524;55.434;38.520;2022-11-14T00:23:24;3.08;;;2.00;;
47760;SDS011;33524;55.434;38.520;2022-11-14T00:26:10;3.35;;;2.08;;
47760;SDS011;33524;55.434;38.520;2022-11-14T00:28:57;2.72;;;1.95;;
47760;SDS011;33524;55.434;38.520;2022-11-14T00:31:43;3.12;;;2.10;;
47760;SDS011;33524;55.434;38.520;2022-11-14T00:34:32;2.42;;;1.83;;
47760;SDS011;33524;55.434;38.520;2022-11-14T00:37:19;3.60;;;2.10;;
47760;SDS011;33524;55.434;38.520;2022-11-14T00:40:05;2.12;;;1.73;;
47760;SDS011;33524;55.434;38.520;2022-11-14T00:42:52;2.58;;;1.90;;
47760;SDS011;33524;55.434;38.520;2022-11-14T00:45:38;2.37;;;1.60;;
47760;SDS011;33524;55.434;38.520;2022-11-14T00:48:24;3.58;;;1.80;;
47760;SDS011;33524;55.434;38.520;2022-11-14T00:51:13;2.25;;;1.75;;
47760;SDS011;33524;55.434;38.520;2022-11-14T00:54:00;1.67;;;1.42;;
47760;SDS011;33524;55.434;38.520;2022-11-14T00:56:49;3.75;;;2.00;;
47760;SDS011;33524;55.434;38.520;2022-11-14T00:59:35;2.75;;;2.10;;
47760;SDS011;33524;55.434;38.520;2022-11-14T01:02:21;2.05;;;1.60;;
47760;SDS011;33524;55.434;38.520;2022-11-14T01:05:08;4.30;;;1.83;;
47760;SDS011;33524;55.434;38.520;2022-11-14T01:07:57;3.22;;;1.77;;
47760;SDS011;33524;55.434;38.520;2022-11-14T01:10:48;3.50;;;2.00;;
47760;SDS011;33524;55.434;38.520;2022-11-14T01:13:35;3.10;;;1.42;;
47760;SDS011;33524;55.434;38.520;2022-11-14T01:16:21;2.78;;;1.40;;
47760;SDS011;33524;55.434;38.520;2022-11-14T01:19:07;2.42;;;1.70;;
47760;SDS011;33524;55.434;38.520;2022-11-14T01:21:56;3.55;;;2.00;;
47760;SDS011;33524;55.434;38.520;2022-11-14T01:24:50;4.62;;;2.00;;
47760;SDS011;33524;55.434;38.520;2022-11-14T01:27:36;3.33;;;2.15;;
47760;SDS011;33524;55.434;38.520;2022-11-14T01:30:22;2.90;;;1.87;;
47760;SDS011;33524;55.434;38.520;2022-11-14T01:33:09;3.30;;;2.15;;
47760;SDS011;33524;55.434;38.520;2022-11-14T01:35:58;3.83;;;2.00;;
47760;SDS011;33524;55.434;38.520;2022-11-14T01:38:44;2.83;;;1.90;;
47760;SDS011;33524;55.434;38.520;2022-11-14T01:41:31;2.03;;;1.67;;
47760;SDS011;33524;55.434;38.520;2022-11-14T01:44:37;3.12;;;1.95;;
47760;SDS011;33524;55.434;38.520;2022-11-14T01:47:37;5.68;;;2.22;;
47760;SDS011;33524;55.434;38.520;2022-11-14T01:50:24;4.35;;;1.87;;
47760;SDS011;33524;55.434;38.520;2022-11-14T01:53:15;3.92;;;1.95;;
47760;SDS011;33524;55.434;38.520;2022-11-14T01:56:02;2.92;;;1.87;;
47760;SDS011;33524;55.434;38.520;2022-11-14T01:58:57;2.95;;;2.00;;
47760;SDS011;33524;55.434;38.520;2022-11-14T02:01:52;2.78;;;1.60;;
47760;SDS011;33524;55.434;38.520;2022-11-14T02:04:40;3.00;;;2.08;;
47760;SDS011;33524;55.434;38.520;2022-11-14T02:07:32;2.78;;;1.83;;
47760;SDS011;33524;55.434;38.520;2022-11-14T02:10:22;3.30;;;1.80;;
47760;SDS011;33524;55.434;38.520;2022-11-14T02:13:08;3.20;;;1.50;;
47760;SDS011;33524;55.434;38.520;2022-11-14T02:15:54;2.17;;;1.55;;
47760;SDS011;33524;55.434;38.520;2022-11-14T02:18:40;2.70;;;1.65;;
47760;SDS011;33524;55.434;38.520;2022-11-14T02:21:27;2.60;;;1.52;;
47760;SDS011;33524;55.434;38.520;2022-11-14T02:24:13;1.90;;;1.37;;
47760;SDS011;33524;55.434;38.520;2022-11-14T02:26:59;2.95;;;2.05;;
47760;SDS011;33524;55.434;38.520;2022-11-14T02:29:46;2.45;;;1.80;;
47760;SDS011;33524;55.434;38.520;2022-11-14T02:32:32;3.62;;;1.80;;
47760;SDS011;33524;55.434;38.520;2022-11-14T02:35:39;2.42;;;1.70;;
47760;SDS011;33524;55.434;38.520;2022-11-14T02:38:25;2.37;;;1.77;;
47760;SDS011;33524;55.434;38.520;2022-11-14T02:41:12;3.12;;;2.12;;
47760;SDS011;33524;55.434;38.520;2022-11-14T02:44:01;2.83;;;1.35;;
47760;SDS011;33524;55.434;38.520;2022-11-14T02:46:48;2.80;;;1.85;;
47760;SDS011;33524;55.434;38.520;2022-11-14T02:49:34;4.50;;;2.33;;
47760;SDS011;33524;55.434;38.520;2022-11-14T02:52:20;4.40;;;2.25;;
47760;SDS011;33524;55.434;38.520;2022-11-14T02:55:07;3.67;;;2.03;;
47760;SDS011;33524;55.434;38.520;2022-11-14T02:57:54;3.80;;;2.20;;
47760;SDS011;33524;55.434;38.520;2022-11-14T03:00:40;3.40;;;2.08;;
47760;SDS011;33524;55.434;38.520;2022-11-14T03:03:46;3.10;;;1.90;;
47760;SDS011;33524;55.434;38.520;2022-11-14T03:06:32;4.75;;;2.12;;
47760;SDS011;33524;55.434;38.520;2022-11-14T03:09:18;3.53;;;2.00;;
47760;SDS011;33524;55.434;38.520;2022-11-14T03:12:08;2.72;;;1.80;;
47760;SDS011;33524;55.434;38.520;2022-11-14T03:14:54;3.75;;;1.98;;
47760;SDS011;33524;55.434;38.520;2022-11-14T03:17:40;5.50;;;2.30;;
47760;SDS011;33524;55.434;38.520;2022-11-14T03:20:30;4.12;;;2.00;;
47760;SDS011;33524;55.434;38.520;2022-11-14T03:23:16;3.17;;;2.00;;
47760;SDS011;33524;55.434;38.520;2022-11-14T03:26:03;3.22;;;1.80;;
47760;SDS011;33524;55.434;38.520;2022-11-14T03:28:51;3.95;;;2.17;;
47760;SDS011;33524;55.434;38.520;2022-11-14T03:31:39;2.92;;;2.15;;
47760;SDS011;33524;55.434;38.520;2022-11-14T03:34:26;3.37;;;2.25;;
47760;SDS011;33524;55.434;38.520;2022-11-14T03:37:12;3.65;;;2.00;;
47760;SDS011;33524;55.434;38.520;2022-11-14T03:39:58;3.55;;;1.90;;
47760;SDS011;33524;55.434;38.520;2022-11-14T03:42:44;4.12;;;2.53;;
47760;SDS011;33524;55.434;38.520;2022-11-14T03:45:30;4.47;;;1.90;;
47760;SDS011;33524;55.434;38.520;2022-11-14T03:48:19;3.60;;;1.87;;
47760;SDS011;33524;55.434;38.520;2022-11-14T03:51:06;4.37;;;2.00;;
47760;SDS011;33524;55.434;38.520;2022-11-14T03:53:52;1.98;;;1.60;;
47760;SDS011;33524;55.434;38.520;2022-11-14T03:56:42;3.00;;;1.73;;
47760;SDS011;33524;55.434;38.520;2022-11-14T03:59:28;3.17;;;1.80;;
47760;SDS011;33524;55.434;38.520;2022-11-14T04:02:14;4.57;;;2.47;;
47760;SDS011;33524;55.434;38.520;2022-11-14T04:05:01;3.65;;;2.30;;
47760;SDS011;33524;55.434;38.520;2022-11-14T04:07:50;4.43;;;2.00;;
47760;SDS011;33524;55.434;38.520;2022-11-14T04:10:36;4.20;;;2.05;;
47760;SDS011;33524;55.434;38.520;2022-11-14T04:13:23;4.12;;;1.60;;
47760;SDS011;33524;55.434;38.520;2022-11-14T04:16:09;4.62;;;1.83;;
47760;SDS011;33524;55.434;38.520;2022-11-14T04:18:55;3.40;;;2.05;;
47760;SDS011;33524;55.434;38.520;2022-11-14T04:21:41;4.32;;;2.35;;
47760;SDS011;33524;55.434;38.520;2022-11-14T04:24:28;5.60;;;1.87;;
47760;SDS011;33524;55.434;38.520;2022-11-14T04:27:14;3.28;;;1.87;;
47760;SDS011;33524;55.434;38.520;2022-11-14T04:30:00;3.85;;;2.30;;
47760;SDS011;33524;55.434;38.520;2022-11-14T04:32:50;4.65;;;2.28;;
47760;SDS011;33524;55.434;38.520;2022-11-14T04:35:36;4.78;;;2.30;;
47760;SDS011;33524;55.434;38.520;2022-11-14T04:38:22;3.95;;;2.17;;
47760;SDS011;33524;55.434;38.520;2022-11-14T04:41:08;3.33;;;1.65;;
47760;SDS011;33524;55.434;38.520;2022-11-14T04:43:54;4.25;;;1.73;;
47760;SDS011;33524;55.434;38.520;2022-11-14T04:46:41;4.32;;;2.50;;
47760;SDS011;33524;55.434;38.520;2022-11-14T04:49:27;3.58;;;1.83;;
47760;SDS011;33524;55.434;38.520;2022-11-14T04:52:13;2.60;;;1.70;;
47760;SDS011;33524;55.434;38.520;2022-11-14T04:54:59;3.12;;;2.30;;
47760;SDS011;33524;55.434;38.520;2022-11-14T04:57:52;2.70;;;1.98;;
47760;SDS011;33524;55.434;38.520;2022-11-14T05:00:40;6.55;;;2.20;;
47760;SDS011;33524;55.434;38.520;2022-11-14T05:03:27;3.83;;;2.33;;
47760;SDS011;33524;55.434;38.520;2022-11-14T05:06:14;3.62;;;2.10;;
47760;SDS011;33524;55.434;38.520;2022-11-14T05:09:00;4.12;;;1.98;;
47760;SDS011;33524;55.434;38.520;2022-11-14T05:11:46;6.80;;;2.75;;
47760;SDS011;33524;55.434;38.520;2022-11-14T05:14:36;3.40;;;1.77;;
47760;SDS011;33524;55.434;38.520;2022-11-14T05:17:22;3.85;;;2.00;;
47760;SDS011;33524;55.434;38.520;2022-11-14T05:20:08;6.32;;;3.12;;
47760;SDS011;33524;55.434;38.520;2022-11-14T05:22:55;4.65;;;2.10;;
47760;SDS011;33524;55.434;38.520;2022-11-14T05:25:42;5.78;;;2.47;;
47760;SDS011;33524;55.434;38.520;2022-11-14T05:28:29;5.60;;;2.80;;
47760;SDS011;33524;55.434;38.520;2022-11-14T05:31:16;6.70;;;2.90;;
47760;SDS011;33524;55.434;38.520;2022-11-14T05:34:05;3.83;;;2.47;;
47760;SDS011;33524;55.434;38.520;2022-11-14T05:36:51;8.18;;;4.70;;
47760;SDS011;33524;55.434;38.520;2022-11-14T05:39:37;3.97;;;1.90;;
47760;SDS011;33524;55.434;38.520;2022-11-14T05:42:24;5.97;;;2.10;;
47760;SDS011;33524;55.434;38.520;2022-11-14T05:45:12;3.42;;;3.05;;
47760;SDS011;33524;55.434;38.520;2022-11-14T05:47:58;3.85;;;1.70;;
47760;SDS011;33524;55.434;38.520;2022-11-14T05:51:27;4.55;;;2.00;;
47760;SDS011;33524;55.434;38.520;2022-11-14T05:54:02;2.95;;;1.60;;
47760;SDS011;33524;55.434;38.520;2022-11-14T05:56:49;3.28;;;1.50;;
47760;SDS011;33524;55.434;38.520;2022-11-14T05:59:35;4.70;;;1.95;;
47760;SDS011;33524;55.434;38.520;2022-11-14T06:02:21;3.67;;;1.60;;
47760;SDS011;33524;55.434;38.520;2022-11-14T06:05:08;5.50;;;1.80;;
47760;SDS011;33524;55.434;38.520;2022-11-14T06:07:57;1.85;;;1.30;;
47760;SDS011;33524;55.434;38.520;2022-11-14T06:10:46;4.15;;;1.42;;
47760;SDS011;33524;55.434;38.520;2022-11-14T06:13:33;4.07;;;1.87;;
47760;SDS011;33524;55.434;38.520;2022-11-14T06:16:20;11.27;;;6.82;;
47760;SDS011;33524;55.434;38.520;2022-11-14T06:19:08;4.55;;;1.80;;
47760;SDS011;33524;55.434;38.520;2022-11-14T06:21:55;5.07;;;2.90;;
47760;SDS011;33524;55.434;38.520;2022-11-14T06:24:41;5.62;;;2.35;;
47760;SDS011;33524;55.434;38.520;2022-11-14T06:27:29;5.55;;;2.35;;
47760;SDS011;33524;55.434;38.520;2022-11-14T06:30:15;3.45;;;2.10;;
47760;SDS011;33524;55.434;38.520;2022-11-14T06:33:04;4.87;;;2.58;;
47760;SDS011;33524;55.434;38.520;2022-11-14T06:35:55;6.03;;;2.95;;
47760;SDS011;33524;55.434;38.520;2022-11-14T06:38:45;7.12;;;3.33;;
47760;SDS011;33524;55.434;38.520;2022-11-14T06:41:31;7.25;;;2.67;;
47760;SDS011;33524;55.434;38.520;2022-11-14T06:44:17;4.15;;;2.47;;
47760;SDS011;33524;55.434;38.520;2022-11-14T06:47:03;5.53;;;2.78;;
47760;SDS011;33524;55.434;38.520;2022-11-14T06:49:50;5.93;;;2.70;;
47760;SDS011;33524;55.434;38.520;2022-11-14T06:52:36;3.50;;;2.65;;
47760;SDS011;33524;55.434;38.520;2022-11-14T06:55:25;7.68;;;3.40;;
47760;SDS011;33524;55.434;38.520;2022-11-14T06:58:11;5.53;;;3.40;;
47760;SDS011;33524;55.434;38.520;2022-11-14T07:03:54;4.05;;;1.87;;
47760;SDS011;33524;55.434;38.520;2022-11-14T07:06:43;4.50;;;2.60;;
47760;SDS011;33524;55.434;38.520;2022-11-14T07:09:32;7.60;;;3.50;;
47760;SDS011;33524;55.434;38.520;2022-11-14T07:12:21;7.60;;;3.22;;
47760;SDS011;33524;55.434;38.520;2022-11-14T07:15:07;4.93;;;2.80;;
47760;SDS011;33524;55.434;38.520;2022-11-14T07:17:55;6.37;;;2.58;;
47760;SDS011;33524;55.434;38.520;2022-11-14T07:20:43;5.12;;;2.00;;
47760;SDS011;33524;55.434;38.520;2022-11-14T07:23:29;5.72;;;2.53;;
47760;SDS011;33524;55.434;38.520;2022-11-14T07:26:17;6.85;;;4.85;;
47760;SDS011;33524;55.434;38.520;2022-11-14T07:29:03;5.47;;;2.78;;
47760;SDS011;33524;55.434;38.520;2022-11-14T07:31:50;2.10;;;1.37;;
47760;SDS011;33524;55.434;38.520;2022-11-14T07:34:36;3.40;;;2.12;;
47760;SDS011;33524;55.434;38.520;2022-11-14T07:37:22;7.00;;;2.53;;
47760;SDS011;33524;55.434;38.520;2022-11-14T07:40:09;7.95;;;2.30;;
47760;SDS011;33524;55.434;38.520;2022-11-14T07:42:58;7.95;;;2.45;;
47760;SDS011;33524;55.434;38.520;2022-11-14T07:45:47;5.85;;;2.53;;
47760;SDS011;33524;55.434;38.520;2022-11-14T07:48:34;7.82;;;1.95;;
47760;SDS011;33524;55.434;38.520;2022-11-14T07:51:21;7.68;;;3.05;;
47760;SDS011;33524;55.434;38.520;2022-11-14T07:54:09;3.78;;;1.90;;
47760;SDS011;33524;55.434;38.520;2022-11-14T07:56:56;4.03;;;2.03;;
47760;SDS011;33524;55.434;38.520;2022-11-14T07:59:42;7.78;;;2.35;;
47760;SDS011;33524;55.434;38.520;2022-11-14T08:02:29;4.25;;;2.22;;
47760;SDS011;33524;55.434;38.520;2022-11-14T08:05:15;6.65;;;2.05;;
47760;SDS011;33524;55.434;38.520;2022-11-14T08:08:02;5.05;;;2.50;;
47760;SDS011;33524;55.434;38.520;2022-11-14T08:10:48;6.10;;;2.65;;
47760;SDS011;33524;55.434;38.520;2022-11-14T08:13:34;3.85;;;2.03;;
47760;SDS011;33524;55.434;38.520;2022-11-14T08:16:20;5.12;;;2.33;;
47760;SDS011;33524;55.434;38.520;2022-11-14T08:19:06;3.47;;;1.70;;
47760;SDS011;33524;55.434;38.520;2022-11-14T08:21:55;5.70;;;2.00;;
47760;SDS011;33524;55.434;38.520;2022-11-14T08:24:41;4.60;;;2.05;;
47760;SDS011;33524;55.434;38.520;2022-11-14T08:27:29;4.80;;;1.98;;
47760;SDS011;33524;55.434;38.520;2022-11-14T08:30:16;4.37;;;2.15;;
47760;SDS011;33524;55.434;38.520;2022-11-14T08:33:06;5.37;;;1.90;;
47760;SDS011;33524;55.434;38.520;2022-11-14T08:36:02;4.25;;;1.70;;
47760;SDS011;33524;55.434;38.520;2022-11-14T08:38:49;3.80;;;1.73;;
47760;SDS011;33524;55.434;38.520;2022-11-14T08:41:40;3.50;;;1.83;;
47760;SDS011;33524;55.434;38.520;2022-11-14T08:44:27;4.37;;;2.10;;
47760;SDS011;33524;55.434;38.520;2022-11-14T08:47:14;3.42;;;1.73;;
47760;SDS011;33524;55.434;38.520;2022-11-14T08:50:03;6.03;;;2.28;;
47760;SDS011;33524;55.434;38.520;2022-11-14T08:52:50;4.18;;;2.35;;
47760;SDS011;33524;55.434;38.520;2022-11-14T08:55:36;3.85;;;1.48;;
47760;SDS011;33524;55.434;38.520;2022-11-14T08:58:31;5.35;;;1.65;;
47760;SDS011;33524;55.434;38.520;2022-11-14T09:01:18;6.82;;;2.72;;
47760;SDS011;33524;55.434;38.520;2022-11-14T09:04:04;4.72;;;2.00;;
47760;SDS011;33524;55.434;38.520;2022-11-14T09:06:51;5.82;;;2.95;;
47760;SDS011;33524;55.434;38.520;2022-11-14T09:09:37;3.78;;;1.30;;
47760;SDS011;33524;55.434;38.520;2022-11-14T09:12:24;4.87;;;1.85;;
47760;SDS011;33524;55.434;38.520;2022-11-14T09:15:10;2.90;;;1.58;;
47760;SDS011;33524;55.434;38.520;2022-11-14T09:17:56;3.50;;;1.55;;
47760;SDS011;33524;55.434;38.520;2022-11-14T09:20:43;4.43;;;2.28;;
47760;SDS011;33524;55.434;38.520;2022-11-14T09:23:29;3.47;;;1.65;;
47760;SDS011;33524;55.434;38.520;2022-11-14T09:26:17;4.00;;;1.77;;
47760;SDS011;33524;55.434;38.520;2022-11-14T09:29:03;2.40;;;1.30;;
47760;SDS011;33524;55.434;38.520;2022-11-14T09:31:51;3.45;;;1.50;;
47760;SDS011;33524;55.434;38.520;2022-11-14T09:34:37;5.18;;;2.50;;
47760;SDS011;33524;55.434;38.520;2022-11-14T09:37:31;3.45;;;1.50;;
47760;SDS011;33524;55.434;38.520;2022-11-14T09:40:17;3.45;;;1.80;;
47760;SDS011;33524;55.434;38.520;2022-11-14T09:43:14;5.60;;;3.17;;
47760;SDS011;33524;55.434;38.520;2022-11-14T09:46:24;2.37;;;1.67;;
47760;SDS011;33524;55.434;38.520;2022-11-14T09:49:39;3.37;;;1.62;;
47760;SDS011;33524;55.434;38.520;2022-11-14T09:55:55;5.35;;;1.98;;
47760;SDS011;33524;55.434;38.520;2022-11-14T09:58:42;3.92;;;1.85;;
47760;SDS011;33524;55.434;38.520;2022-11-14T10:04:51;9.40;;;3.55;;
47760;SDS011;33524;55.434;38.520;2022-11-14T10:08:00;6.85;;;2.25;;
47760;SDS011;33524;55.434;38.520;2022-11-14T10:11:00;3.42;;;1.50;;
47760;SDS011;33524;55.434;38.520;2022-11-14T10:17:13;2.80;;;1.42;;
47760;SDS011;33524;55.434;38.520;2022-11-14T10:39:39;3.25;;;1.50;;
47760;SDS011;33524;55.434;38.520;2022-11-14T10:42:38;6.90;;;1.70;;
47760;SDS011;33524;55.434;38.520;2022-11-14T10:45:33;4.87;;;1.50;;
47760;SDS011;33524;55.434;38.520;2022-11-14T10:48:38;6.93;;;1.73;;
47760;SDS011;33524;55.434;38.520;2022-11-14T10:51:37;4.28;;;1.75;;
47760;SDS011;33524;55.434;38.520;2022-11-14T10:57:20;6.75;;;2.97;;
47760;SDS011;33524;55.434;38.520;2022-11-14T11:00:11;5.80;;;3.12;;
47760;SDS011;33524;55.434;38.520;2022-11-14T11:02:58;9.68;;;3.83;;
47760;SDS011;33524;55.434;38.520;2022-11-14T11:05:46;5.12;;;2.35;;
47760;SDS011;33524;55.434;38.520;2022-11-14T11:08:39;5.70;;;1.90;;
47760;SDS011;33524;55.434;38.520;2022-11-14T11:11:59;5.82;;;2.60;;
47760;SDS011;33524;55.434;38.520;2022-11-14T11:14:48;6.43;;;2.20;;
47760;SDS011;33524;55.434;38.520;2022-11-14T11:21:12;6.85;;;2.55;;
47760;SDS011;33524;55.434;38.520;2022-11-14T11:24:01;6.72;;;2.08;;
47760;SDS011;33524;55.434;38.520;2022-11-14T11:26:47;3.30;;;1.55;;
47760;SDS011;33524;55.434;38.520;2022-11-14T11:29:37;4.15;;;1.95;;
47760;SDS011;33524;55.434;38.520;2022-11-14T11:32:26;6.75;;;3.10;;
47760;SDS011;33524;55.434;38.520;2022-11-14T11:35:13;6.07;;;2.40;;
47760;SDS011;33524;55.434;38.520;2022-11-14T11:38:01;12.73;;;3.55;;
47760;SDS011;33524;55.434;38.520;2022-11-14T11:40:50;4.03;;;2.60;;
47760;SDS011;33524;55.434;38.520;2022-11-14T11:46:33;9.30;;;3.75;;
47760;SDS011;33524;55.434;38.520;2022-11-14T11:49:34;7.43;;;2.87;;
47760;SDS011;33524;55.434;38.520;2022-11-14T11:55:52;11.50;;;2.55;;
47760;SDS011;33524;55.434;38.520;2022-11-14T11:58:47;6.70;;;1.92;;
47760;SDS011;33524;55.434;38.520;2022-11-14T12:01:35;5.40;;;2.50;;
47760;SDS011;33524;55.434;38.520;2022-11-14T12:04:24;4.80;;;1.70;;
47760;SDS011;33524;55.434;38.520;2022-11-14T12:07:11;8.20;;;3.12;;
47760;SDS011;33524;55.434;38.520;2022-11-14T12:10:04;9.85;;;2.83;;
47760;SDS011;33524;55.434;38.520;2022-11-14T12:16:41;4.30;;;2.00;;
47760;SDS011;33524;55.434;38.520;2022-11-14T12:19:50;4.40;;;1.80;;
47760;SDS011;33524;55.434;38.520;2022-11-14T12:26:09;6.10;;;1.95;;
47760;SDS011;33524;55.434;38.520;2022-11-14T12:32:27;6.50;;;2.33;;
47760;SDS011;33524;55.434;38.520;2022-11-14T12:35:25;4.05;;;2.28;;
47760;SDS011;33524;55.434;38.520;2022-11-14T12:41:07;5.95;;;3.12;;
47760;SDS011;33524;55.434;38.520;2022-11-14T12:47:13;9.50;;;3.80;;
47760;SDS011;33524;55.434;38.520;2022-11-14T12:50:25;22.80;;;8.23;;
47760;SDS011;33524;55.434;38.520;2022-11-14T13:11:44;10.30;;;4.12;;
47760;SDS011;33524;55.434;38.520;2022-11-14T13:14:51;7.40;;;2.97;;
47760;SDS011;33524;55.434;38.520;2022-11-14T13:18:45;16.00;;;8.10;;
47760;SDS011;33524;55.434;38.520;2022-11-14T13:21:30;11.63;;;4.53;;
47760;SDS011;33524;55.434;38.520;2022-11-14T13:27:46;13.32;;;6.35;;
47760;SDS011;33524;55.434;38.520;2022-11-14T13:31:06;15.27;;;6.53;;
47760;SDS011;33524;55.434;38.520;2022-11-14T13:40:40;13.50;;;7.68;;
47760;SDS011;33524;55.434;38.520;2022-11-14T13:47:01;7.87;;;4.18;;
47760;SDS011;33524;55.434;38.520;2022-11-14T13:49:55;8.48;;;4.28;;
47760;SDS011;33524;55.434;38.520;2022-11-14T13:52:47;9.25;;;4.37;;
47760;SDS011;33524;55.434;38.520;2022-11-14T13:55:43;13.57;;;4.43;;
47760;SDS011;33524;55.434;38.520;2022-11-14T14:20:33;23.40;;;8.25;;
47760;SDS011;33524;55.434;38.520;2022-11-14T14:23:42;12.98;;;6.53;;
47760;SDS011;33524;55.434;38.520;2022-11-14T14:32:30;13.05;;;7.57;;
47760;SDS011;33524;55.434;38.520;2022-11-14T14:35:25;20.17;;;9.07;;
47760;SDS011;33524;55.434;38.520;2022-11-14T14:38:20;26.30;;;12.85;;
47760;SDS011;33524;55.434;38.520;2022-11-14T14:41:13;17.95;;;9.70;;
47760;SDS011;33524;55.434;38.520;2022-11-14T14:44:02;19.17;;;6.57;;
47760;SDS011;33524;55.434;38.520;2022-11-14T14:46:49;11.90;;;5.50;;
47760;SDS011;33524;55.434;38.520;2022-11-14T14:49:36;8.98;;;5.00;;
47760;SDS011;33524;55.434;38.520;2022-11-14T14:55:24;10.20;;;5.78;;
47760;SDS011;33524;55.434;38.520;2022-11-14T15:04:14;17.20;;;7.30;;
47760;SDS011;33524;55.434;38.520;2022-11-14T15:07:02;10.80;;;4.50;;
47760;SDS011;33524;55.434;38.520;2022-11-14T15:12:42;11.50;;;5.25;;
47760;SDS011;33524;55.434;38.520;2022-11-14T15:15:29;36.03;;;15.50;;
47760;SDS011;33524;55.434;38.520;2022-11-14T15:18:27;34.38;;;14.07;;
47760;SDS011;33524;55.434;38.520;2022-11-14T15:24:16;19.73;;;8.95;;
47760;SDS011;33524;55.434;38.520;2022-11-14T15:27:04;14.45;;;7.18;;
47760;SDS011;33524;55.434;38.520;2022-11-14T15:30:05;15.02;;;6.60;;
47760;SDS011;33524;55.434;38.520;2022-11-14T15:33:05;10.50;;;4.22;;
47760;SDS011;33524;55.434;38.520;2022-11-14T15:36:13;13.45;;;3.80;;
47760;SDS011;33524;55.434;38.520;2022-11-14T15:39:18;8.05;;;3.70;;
47760;SDS011;33524;55.434;38.520;2022-11-14T15:45:20;8.23;;;3.55;;
47760;SDS011;33524;55.434;38.520;2022-11-14T15:48:13;6.30;;;3.28;;
47760;SDS011;33524;55.434;38.520;2022-11-14T15:51:03;6.20;;;3.22;;
47760;SDS011;33524;55.434;38.520;2022-11-14T15:53:50;10.07;;;3.42;;
47760;SDS011;33524;55.434;38.520;2022-11-14T15:56:38;7.55;;;3.60;;
47760;SDS011;33524;55.434;38.520;2022-11-14T15:59:28;6.18;;;3.12;;
47760;SDS011;33524;55.434;38.520;2022-11-14T16:02:17;7.62;;;3.65;;
47760;SDS011;33524;55.434;38.520;2022-11-14T16:05:11;6.70;;;3.17;;
47760;SDS011;33524;55.434;38.520;2022-11-14T16:07:59;6.07;;;3.22;;
47760;SDS011;33524;55.434;38.520;2022-11-14T16:10:45;7.53;;;3.92;;
47760;SDS011;33524;55.434;38.520;2022-11-14T16:13:31;8.05;;;2.87;;
47760;SDS011;33524;55.434;38.520;2022-11-14T16:16:18;7.43;;;3.10;;
47760;SDS011;33524;55.434;38.520;2022-11-14T16:19:05;6.93;;;3.05;;
47760;SDS011;33524;55.434;38.520;2022-11-14T16:21:52;9.00;;;3.17;;
47760;SDS011;33524;55.434;38.520;2022-11-14T16:24:38;8.02;;;2.70;;
47760;SDS011;33524;55.434;38.520;2022-11-14T16:27:24;6.55;;;2.97;;
47760;SDS011;33524;55.434;38.520;2022-11-14T16:30:11;7.37;;;2.85;;
47760;SDS011;33524;55.434;38.520;2022-11-14T16:32:58;6.70;;;3.00;;
47760;SDS011;33524;55.434;38.520;2022-11-14T16:35:45;4.93;;;2.35;;
47760;SDS011;33524;55.434;38.520;2022-11-14T16:38:31;4.43;;;2.80;;
47760;SDS011;33524;55.434;38.520;2022-11-14T16:41:18;12.05;;;3.70;;
47760;SDS011;33524;55.434;38.520;2022-11-14T16:44:05;5.00;;;2.58;;
47760;SDS011;33524;55.434;38.520;2022-11-14T16:46:54;7.72;;;2.47;;
47760;SDS011;33524;55.434;38.520;2022-11-14T16:49:41;6.45;;;3.10;;
47760;SDS011;33524;55.434;38.520;2022-11-14T16:52:29;4.55;;;1.92;;
47760;SDS011;33524;55.434;38.520;2022-11-14T16:55:15;3.53;;;2.50;;
47760;SDS011;33524;55.434;38.520;2022-11-14T16:58:02;4.87;;;2.70;;
47760;SDS011;33524;55.434;38.520;2022-11-14T17:00:49;5.20;;;1.77;;
47760;SDS011;33524;55.434;38.520;2022-11-14T17:03:35;6.28;;;2.70;;
47760;SDS011;33524;55.434;38.520;2022-11-14T17:06:22;6.45;;;2.10;;
47760;SDS011;33524;55.434;38.520;2022-11-14T17:09:12;8.20;;;3.47;;
47760;SDS011;33524;55.434;38.520;2022-11-14T17:11:59;5.90;;;2.95;;
47760;SDS011;33524;55.434;38.520;2022-11-14T17:14:46;6.55;;;2.58;;
47760;SDS011;33524;55.434;38.520;2022-11-14T17:17:34;5.97;;;2.50;;
47760;SDS011;33524;55.434;38.520;2022-11-14T17:20:20;7.10;;;2.67;;
47760;SDS011;33524;55.434;38.520;2022-11-14T17:23:07;5.75;;;2.42;;
47760;SDS011;33524;55.434;38.520;2022-11-14T17:25:59;4.60;;;2.45;;
47760;SDS011;33524;55.434;38.520;2022-11-14T17:28:51;5.90;;;2.22;;
47760;SDS011;33524;55.434;38.520;2022-11-14T17:31:39;7.87;;;3.17;;
47760;SDS011;33524;55.434;38.520;2022-11-14T17:34:31;5.25;;;2.55;;
47760;SDS011;33524;55.434;38.520;2022-11-14T17:37:19;3.17;;;1.95;;
47760;SDS011;33524;55.434;38.520;2022-11-14T17:40:06;6.00;;;2.12;;
47760;SDS011;33524;55.434;38.520;2022-11-14T17:43:00;4.90;;;2.70;;
47760;SDS011;33524;55.434;38.520;2022-11-14T17:45:57;4.82;;;2.55;;
47760;SDS011;33524;55.434;38.520;2022-11-14T17:48:44;7.37;;;2.30;;
47760;SDS011;33524;55.434;38.520;2022-11-14T17:51:31;4.10;;;1.58;;
47760;SDS011;33524;55.434;38.520;2022-11-14T17:54:18;3.03;;;2.08;;
47760;SDS011;33524;55.434;38.520;2022-11-14T17:57:05;2.83;;;1.60;;
47760;SDS011;33524;55.434;38.520;2022-11-14T17:59:52;5.37;;;2.00;;
47760;SDS011;33524;55.434;38.520;2022-11-14T18:02:38;3.10;;;1.77;;
47760;SDS011;33524;55.434;38.520;2022-11-14T18:05:25;5.18;;;2.25;;
47760;SDS011;33524;55.434;38.520;2022-11-14T18:08:15;4.03;;;2.15;;
47760;SDS011;33524;55.434;38.520;2022-11-14T18:11:03;5.25;;;2.80;;
47760;SDS011;33524;55.434;38.520;2022-11-14T18:13:52;6.12;;;2.28;;
47760;SDS011;33524;55.434;38.520;2022-11-14T18:16:41;3.25;;;2.08;;
47760;SDS011;33524;55.434;38.520;2022-11-14T18:19:49;4.55;;;1.80;;
47760;SDS011;33524;55.434;38.520;2022-11-14T18:22:36;4.18;;;1.75;;
47760;SDS011;33524;55.434;38.520;2022-11-14T18:25:26;5.43;;;1.77;;
47760;SDS011;33524;55.434;38.520;2022-11-14T18:28:14;3.17;;;2.05;;
47760;SDS011;33524;55.434;38.520;2022-11-14T18:31:01;2.25;;;1.40;;
47760;SDS011;33524;55.434;38.520;2022-11-14T18:33:49;7.72;;;2.60;;
47760;SDS011;33524;55.434;38.520;2022-11-14T18:36:38;5.50;;;2.20;;
47760;SDS011;33524;55.434;38.520;2022-11-14T18:39:25;3.90;;;1.80;;
47760;SDS011;33524;55.434;38.520;2022-11-14T18:42:13;4.60;;;1.85;;
47760;SDS011;33524;55.434;38.520;2022-11-14T18:45:00;4.93;;;1.77;;
47760;SDS011;33524;55.434;38.520;2022-11-14T18:47:50;5.75;;;2.47;;
47760;SDS011;33524;55.434;38.520;2022-11-14T18:50:41;5.57;;;1.80;;
47760;SDS011;33524;55.434;38.520;2022-11-14T18:53:34;3.15;;;1.27;;
47760;SDS011;33524;55.434;38.520;2022-11-14T18:56:28;8.40;;;2.08;;
47760;SDS011;33524;55.434;38.520;2022-11-14T18:59:18;2.20;;;1.50;;
47760;SDS011;33524;55.434;38.520;2022-11-14T19:02:04;2.80;;;1.62;;
47760;SDS011;33524;55.434;38.520;2022-11-14T19:04:52;3.35;;;1.60;;